Terminal Aerodrome Forecast
Issued by NWS Detroit/Pontiac, MI

Home | Current Version | Previous Version | Text Only | Print | Product List | Glossary On
Versions: 1 2 3 4 5 6 7 8 9 10 11 12 13 14 15 16 17 18 19 20 21
000
FTUS43 KDTX 201700
TAFFNT
TAF
KFNT 201720Z 2018/2118 25010KT P6SM VCSH BKN040
      TEMPO 2018/2019 BKN016
     FM202100 29007KT P6SM BKN025 OVC040
     FM210400 32008KT P6SM OVC015
     FM211400 36013G22KT P6SM OVC025=

USA.gov is the U.S. government's official web portal to all federal, state and local government web resources and services.